createdAt,value
2022-09-14T00:01:23.688Z,73.33
2022-09-14T00:03:52.171Z,74.51
2022-09-14T00:06:18.694Z,74.96
2022-09-14T00:08:45.286Z,72.47
2022-09-14T00:11:13.938Z,72.39
2022-09-14T00:13:42.396Z,73.66
2022-09-14T00:16:14.500Z,72.98
2022-09-14T00:18:41.652Z,72.81
2022-09-14T00:21:10.452Z,72.37
2022-09-14T00:23:38.321Z,72.97
2022-09-14T00:26:11.389Z,74.10
2022-09-14T00:28:47.879Z,72.45
2022-09-14T00:31:14.428Z,72.04
2022-09-14T00:33:44.906Z,72.26
2022-09-14T00:36:14.308Z,72.93
2022-09-14T00:38:41.860Z,73.07
2022-09-14T00:41:13.204Z,73.20
2022-09-14T00:43:58.101Z,72.99
2022-09-14T00:46:28.558Z,73.11
2022-09-14T00:49:51.911Z,73.05
2022-09-14T00:55:39.911Z,72.19
2022-09-14T00:58:17.742Z,72.04
2022-09-14T01:01:10.523Z,72.09
2022-09-14T01:03:44.878Z,71.62
2022-09-14T01:09:51.707Z,72.34
2022-09-14T01:12:50.600Z,73.03
2022-09-14T01:19:04.461Z,73.57
2022-09-14T01:21:33.706Z,73.64
2022-09-14T01:24:48.263Z,74.09
2022-09-14T01:27:24.035Z,73.00
2022-09-14T01:30:10.710Z,74.52
2022-09-14T01:32:45.413Z,74.14
2022-09-14T01:35:18.343Z,74.25
2022-09-14T01:37:44.786Z,74.39
2022-09-14T01:40:20.439Z,73.75
2022-09-14T01:42:52.135Z,74.50
2022-09-14T01:45:21.154Z,74.34
2022-09-14T01:47:52.273Z,73.59
2022-09-14T01:50:38.524Z,74.24
2022-09-14T01:53:15.893Z,74.50
2022-09-14T01:55:51.635Z,73.10
2022-09-14T01:58:25.762Z,73.00
2022-09-14T02:00:54.073Z,74.39
2022-09-14T02:03:25.837Z,74.36
2022-09-14T02:05:58.671Z,74.85
2022-09-14T02:08:26.938Z,74.06
2022-09-14T02:10:53.536Z,73.25
2022-09-14T02:13:20.045Z,72.89
2022-09-14T02:15:46.768Z,73.38
2022-09-14T02:18:13.461Z,73.53
2022-09-14T02:20:45.081Z,73.20
2022-09-14T02:23:11.780Z,73.07
2022-09-14T02:25:41.068Z,73.83
2022-09-14T02:28:08.070Z,73.79
2022-09-14T02:30:48.571Z,74.41
2022-09-14T02:33:23.647Z,74.55
2022-09-14T02:35:54.615Z,75.22
2022-09-14T02:38:28.195Z,74.08
2022-09-14T02:40:59.131Z,73.76
2022-09-14T02:43:41.890Z,74.31
2022-09-14T02:46:20.279Z,74.45
2022-09-14T02:48:52.109Z,73.93
2022-09-14T02:51:34.519Z,73.97
2022-09-14T02:54:07.296Z,73.77
2022-09-14T02:56:35.427Z,74.36
2022-09-14T02:59:01.964Z,73.75
2022-09-14T03:01:28.689Z,74.62
2022-09-14T03:03:55.237Z,74.42
2022-09-14T03:06:22.143Z,74.79
2022-09-14T03:08:49.173Z,74.30
2022-09-14T03:11:15.695Z,74.57
2022-09-14T03:13:42.348Z,74.48
2022-09-14T03:16:14.316Z,74.76
2022-09-14T03:18:41.520Z,74.77
2022-09-14T03:21:11.519Z,73.93
2022-09-14T03:23:39.070Z,74.33
2022-09-14T03:26:10.420Z,73.22
2022-09-14T03:28:37.365Z,74.71
2022-09-14T03:31:05.364Z,74.39
2022-09-14T03:33:32.173Z,74.44
2022-09-14T03:35:58.670Z,74.63
2022-09-14T03:38:27.967Z,74.23
2022-09-14T03:40:54.402Z,74.43
2022-09-14T03:43:21.777Z,74.54
2022-09-14T03:45:48.226Z,75.70
2022-09-14T03:48:15.846Z,75.15
2022-09-14T03:50:42.302Z,74.35
2022-09-14T03:53:08.890Z,74.16
2022-09-14T03:55:35.339Z,74.36
2022-09-14T03:58:01.833Z,74.85
2022-09-14T04:00:28.287Z,73.92
2022-09-14T04:02:54.923Z,73.37
2022-09-14T04:05:22.098Z,74.07
2022-09-14T04:07:48.633Z,73.22
2022-09-14T04:10:15.203Z,72.56
2022-09-14T04:12:41.656Z,73.76
2022-09-14T04:15:09.048Z,73.26
2022-09-14T04:17:35.592Z,72.73
2022-09-14T04:20:02.239Z,73.30
2022-09-14T04:22:28.707Z,72.72
2022-09-14T04:24:55.205Z,72.64
2022-09-14T04:27:21.662Z,73.04
2022-09-14T04:29:50.256Z,72.95
2022-09-14T04:32:16.923Z,72.30
2022-09-14T04:34:43.413Z,72.42
2022-09-14T04:37:09.953Z,72.11
2022-09-14T04:39:36.631Z,72.36
2022-09-14T04:42:03.098Z,72.49
2022-09-14T04:44:29.568Z,72.18
2022-09-14T04:46:56.050Z,71.48
2022-09-14T04:49:22.702Z,71.80
2022-09-14T04:51:49.277Z,71.22
2022-09-14T04:54:17.538Z,71.10
2022-09-14T04:56:44.459Z,70.93
2022-09-14T04:59:11.228Z,71.61
2022-09-14T05:01:40.325Z,71.52
2022-09-14T05:04:08.617Z,71.17
2022-09-14T05:06:36.542Z,70.69
2022-09-14T05:09:04.839Z,71.49
2022-09-14T05:11:33.356Z,70.95
2022-09-14T05:14:00.682Z,71.76
2022-09-14T05:16:29.793Z,72.02
2022-09-14T05:19:02.611Z,72.14
2022-09-14T05:21:30.491Z,71.88
2022-09-14T05:23:59.058Z,72.32
2022-09-14T05:26:26.906Z,72.32
2022-09-14T05:28:55.395Z,72.40
2022-09-14T05:31:23.920Z,72.27
2022-09-14T05:33:50.857Z,72.71
2022-09-14T05:36:17.334Z,71.24
2022-09-14T05:38:43.953Z,71.51
2022-09-14T05:41:12.309Z,71.72
2022-09-14T05:43:39.226Z,72.46
2022-09-14T05:46:12.139Z,72.09
2022-09-14T05:48:39.891Z,72.07
2022-09-14T05:51:09.733Z,72.21
2022-09-14T05:53:36.832Z,72.36
2022-09-14T05:56:04.101Z,71.93
2022-09-14T05:58:31.181Z,72.32
2022-09-14T06:00:57.826Z,73.15
2022-09-14T06:03:24.624Z,73.51
2022-09-14T06:05:54.701Z,73.64
2022-09-14T06:08:21.624Z,74.08
2022-09-14T06:10:48.471Z,73.54
2022-09-14T06:13:15.015Z,72.72
2022-09-14T06:15:41.657Z,72.27
2022-09-14T06:18:08.090Z,72.48
2022-09-14T06:20:34.541Z,71.63
2022-09-14T06:23:01.003Z,71.96
2022-09-14T06:25:28.233Z,72.21
2022-09-14T06:27:55.181Z,71.62
2022-09-14T06:30:21.747Z,72.03
2022-09-14T06:32:48.333Z,71.39
2022-09-14T06:35:15.150Z,70.49
2022-09-14T06:37:41.633Z,70.04
2022-09-14T06:40:08.581Z,70.68
2022-09-14T06:42:35.118Z,69.71
2022-09-14T06:45:01.590Z,69.12
2022-09-14T06:47:32.278Z,70.75
2022-09-14T06:49:59.089Z,70.23
2022-09-14T06:52:25.522Z,69.69
2022-09-14T06:54:51.998Z,69.60
2022-09-14T06:57:18.434Z,68.84
2022-09-14T06:59:44.885Z,68.82
2022-09-14T07:02:13.552Z,67.46
2022-09-14T07:04:40.069Z,67.62
2022-09-14T07:07:06.512Z,68.14
2022-09-14T07:09:32.969Z,68.78
2022-09-14T07:11:59.473Z,67.52
2022-09-14T07:14:29.253Z,67.98
2022-09-14T07:16:58.076Z,67.04
2022-09-14T07:19:24.496Z,66.99
2022-09-14T07:21:51.286Z,67.23
2022-09-14T07:24:17.746Z,67.69
2022-09-14T07:26:44.230Z,67.60
2022-09-14T07:29:17.088Z,66.82
2022-09-14T07:31:46.405Z,67.92
2022-09-14T07:34:13.421Z,67.63
2022-09-14T07:36:42.369Z,67.39
2022-09-14T07:39:11.506Z,66.90
2022-09-14T07:41:38.074Z,66.36
2022-09-14T07:44:07.347Z,66.60
2022-09-14T07:46:39.237Z,66.02
2022-09-14T07:49:06.857Z,65.26
2022-09-14T07:51:34.789Z,65.46
2022-09-14T07:54:01.912Z,65.91
2022-09-14T07:56:28.858Z,65.06
2022-09-14T07:59:17.189Z,65.65
2022-09-14T08:01:46.047Z,64.71
2022-09-14T08:04:12.800Z,65.11
2022-09-14T08:06:40.764Z,64.07
2022-09-14T08:09:08.889Z,63.39
2022-09-14T08:11:35.628Z,64.38
2022-09-14T08:14:05.217Z,63.70
2022-09-14T08:16:33.317Z,63.34
2022-09-14T08:19:03.124Z,63.92
2022-09-14T08:21:32.033Z,62.92
2022-09-14T08:23:59.334Z,63.26
2022-09-14T08:26:27.211Z,61.77
2022-09-14T08:28:54.702Z,61.52
2022-09-14T08:31:24.362Z,61.36
2022-09-14T08:33:53.294Z,60.49
2022-09-14T08:36:21.579Z,60.45
2022-09-14T08:38:48.178Z,60.38
2022-09-14T08:41:27.074Z,60.38
2022-09-14T08:43:53.896Z,59.51
2022-09-14T08:46:37.165Z,59.95
2022-09-14T08:49:07.317Z,60.25
2022-09-14T08:51:33.869Z,60.03
2022-09-14T08:54:00.350Z,59.57
2022-09-14T08:56:32.033Z,59.62
2022-09-14T08:59:09.030Z,59.33
2022-09-14T09:01:49.074Z,60.28
2022-09-14T09:04:25.193Z,60.98
2022-09-14T09:07:21.238Z,61.08
2022-09-14T09:09:52.806Z,61.39
2022-09-14T09:12:25.300Z,61.31
2022-09-14T09:14:58.362Z,59.64
2022-09-14T09:17:31.447Z,57.32
2022-09-14T09:20:05.824Z,58.22
2022-09-14T09:22:43.034Z,57.63
2022-09-14T09:25:24.519Z,57.41
2022-09-14T09:27:54.873Z,57.70
2022-09-14T09:30:21.322Z,57.68
2022-09-14T09:32:48.008Z,58.29
2022-09-14T09:35:21.265Z,60.04
2022-09-14T09:37:47.717Z,59.83
2022-09-14T09:40:20.169Z,58.48
2022-09-14T09:43:06.628Z,60.24
2022-09-14T09:45:51.605Z,61.63
2022-09-14T09:48:19.866Z,62.63
2022-09-14T09:51:05.361Z,62.30
2022-09-14T09:53:34.372Z,63.53
2022-09-14T09:56:01.177Z,63.05
2022-09-14T09:58:36.252Z,64.49
2022-09-14T10:01:23.359Z,63.64
2022-09-14T10:04:08.597Z,63.58
2022-09-14T10:06:43.878Z,63.43
2022-09-14T10:09:18.712Z,62.12
2022-09-14T10:11:46.987Z,61.72
2022-09-14T10:14:26.753Z,60.27
2022-09-14T10:16:53.469Z,59.99
2022-09-14T10:19:26.598Z,59.63
2022-09-14T10:22:30.003Z,59.35
2022-09-14T10:25:00.452Z,59.84
2022-09-14T10:27:39.826Z,59.81
2022-09-14T10:30:14.475Z,59.18
2022-09-14T10:32:43.983Z,59.28
2022-09-14T10:35:15.520Z,58.55
2022-09-14T10:37:51.175Z,58.11
2022-09-14T10:40:27.719Z,57.99
2022-09-14T10:43:13.076Z,59.79
2022-09-14T10:46:01.580Z,59.13
2022-09-14T10:48:28.689Z,59.99
2022-09-14T10:51:07.010Z,58.08
2022-09-14T10:54:11.888Z,58.69
2022-09-14T10:56:59.782Z,62.00
2022-09-14T10:59:43.266Z,64.59
2022-09-14T11:02:15.877Z,65.77
2022-09-14T11:05:00.793Z,65.19
2022-09-14T11:07:42.477Z,63.72
2022-09-14T11:10:36.915Z,64.67
2022-09-14T11:13:15.897Z,65.71
2022-09-14T11:15:56.910Z,67.05
2022-09-14T11:18:38.230Z,67.49
2022-09-14T11:21:26.177Z,68.46
2022-09-14T11:23:56.599Z,66.86
2022-09-14T11:26:24.800Z,64.93
2022-09-14T11:28:59.638Z,62.99
2022-09-14T11:31:33.290Z,60.91
2022-09-14T11:34:28.251Z,58.22
2022-09-14T11:37:07.119Z,57.59
2022-09-14T11:39:38.060Z,55.14
2022-09-14T11:42:13.225Z,54.89
2022-09-14T11:44:41.637Z,55.32
2022-09-14T11:47:13.106Z,55.16
2022-09-14T11:49:55.360Z,54.82
2022-09-14T11:52:24.509Z,52.95
2022-09-14T11:54:51.552Z,52.38
2022-09-14T11:57:20.487Z,51.41
2022-09-14T11:59:50.831Z,53.50
2022-09-14T12:02:44.916Z,51.62
2022-09-14T12:05:11.330Z,51.70
2022-09-14T12:07:45.409Z,51.48
2022-09-14T12:10:15.136Z,51.01
2022-09-14T12:12:46.697Z,50.68
2022-09-14T12:15:26.114Z,51.52
2022-09-14T12:18:08.112Z,52.22
2022-09-14T12:20:37.716Z,51.84
2022-09-14T12:23:16.226Z,52.50
2022-09-14T12:26:10.900Z,53.08
2022-09-14T12:28:37.658Z,53.46
2022-09-14T12:31:04.310Z,54.12
2022-09-14T12:33:36.847Z,54.04
2022-09-14T12:36:22.481Z,53.91
2022-09-14T12:38:57.981Z,54.98
2022-09-14T12:41:24.407Z,54.90
2022-09-14T12:43:51.187Z,55.14
2022-09-14T12:46:20.951Z,54.79
2022-09-14T12:48:51.808Z,53.71
2022-09-14T12:51:27.921Z,54.66
2022-09-14T12:54:00.475Z,54.32
2022-09-14T12:56:56.900Z,53.48
2022-09-14T12:59:44.152Z,55.94
2022-09-14T13:02:16.948Z,55.31
2022-09-14T13:04:45.709Z,54.31
2022-09-14T13:07:17.848Z,52.94
2022-09-14T13:09:52.923Z,53.05
2022-09-14T13:12:45.917Z,53.72
2022-09-14T13:15:36.866Z,53.93
2022-09-14T13:18:30.720Z,54.43
2022-09-14T13:20:59.522Z,55.81
2022-09-14T13:23:38.898Z,56.29
2022-09-14T13:26:11.330Z,55.76
2022-09-14T13:28:37.881Z,55.55
2022-09-14T13:31:05.128Z,55.22
2022-09-14T13:33:31.746Z,53.13
2022-09-14T13:36:00.673Z,52.78
2022-09-14T13:38:30.266Z,54.11
2022-09-14T13:41:11.069Z,52.52
2022-09-14T13:43:40.226Z,52.88
2022-09-14T13:46:08.235Z,53.01
2022-09-14T13:48:38.002Z,54.41
2022-09-14T13:51:05.302Z,53.52
2022-09-14T13:53:49.537Z,54.94
2022-09-14T13:56:33.237Z,54.83
2022-09-14T13:59:09.154Z,55.63
2022-09-14T14:01:52.208Z,54.52
2022-09-14T14:04:28.477Z,54.45
2022-09-14T14:07:07.156Z,55.29
2022-09-14T14:09:45.426Z,55.63
2022-09-14T14:12:21.506Z,56.33
2022-09-14T14:15:20.542Z,54.93
2022-09-14T14:17:47.374Z,54.70
2022-09-14T14:20:26.103Z,55.18
2022-09-14T14:23:00.751Z,55.92
2022-09-14T14:25:46.098Z,55.99
2022-09-14T14:28:27.497Z,54.81
2022-09-14T14:30:55.883Z,55.41
2022-09-14T14:33:22.734Z,55.05
2022-09-14T14:35:54.498Z,55.64
2022-09-14T14:38:23.377Z,56.30
2022-09-14T14:40:51.045Z,56.44
2022-09-14T14:43:25.831Z,57.23
2022-09-14T14:45:58.188Z,58.39
2022-09-14T14:48:25.012Z,59.58
2022-09-14T14:50:51.512Z,59.70
2022-09-14T14:53:17.977Z,62.63
2022-09-14T14:55:44.730Z,62.83
2022-09-14T14:58:16.289Z,64.98
2022-09-14T15:00:43.179Z,67.18
2022-09-14T15:03:09.832Z,69.10
2022-09-14T15:05:40.566Z,69.82
2022-09-14T15:08:07.046Z,70.66
2022-09-14T15:10:33.538Z,69.88
2022-09-14T15:13:00.261Z,70.44
2022-09-14T15:15:26.931Z,69.72
2022-09-14T15:17:53.824Z,67.71
2022-09-14T15:20:21.318Z,67.42
2022-09-14T15:22:48.200Z,67.96
2022-09-14T15:25:16.049Z,65.23
2022-09-14T15:27:42.814Z,65.95
2022-09-14T15:30:10.509Z,65.29
2022-09-14T15:32:36.963Z,66.84
2022-09-14T15:35:05.124Z,65.92
2022-09-14T15:37:31.818Z,65.60
2022-09-14T15:39:58.373Z,66.90
2022-09-14T15:42:25.681Z,66.18
2022-09-14T15:44:52.126Z,65.06
2022-09-14T15:47:18.659Z,65.77
2022-09-14T15:49:45.113Z,66.46
2022-09-14T15:52:12.090Z,66.08
2022-09-14T15:54:39.130Z,66.77
2022-09-14T15:57:09.974Z,66.07
2022-09-14T15:59:36.547Z,65.85
2022-09-14T16:02:03.307Z,65.76
2022-09-14T16:04:35.728Z,66.93
2022-09-14T16:07:02.266Z,65.52
2022-09-14T16:09:28.769Z,64.94
2022-09-14T16:11:58.410Z,64.46
2022-09-14T16:14:28.539Z,65.33
2022-09-14T16:16:58.769Z,65.72
2022-09-14T16:19:25.660Z,65.44
2022-09-14T16:21:53.868Z,66.07
2022-09-14T16:24:21.326Z,64.92
2022-09-14T16:26:47.913Z,65.80
2022-09-14T16:29:16.075Z,66.67
2022-09-14T16:31:44.205Z,66.15
2022-09-14T16:34:17.897Z,65.09
2022-09-14T16:36:44.658Z,65.82
2022-09-14T16:39:13.558Z,67.35
2022-09-14T16:41:41.832Z,67.30
2022-09-14T16:44:18.164Z,65.38
2022-09-14T16:46:45.066Z,66.96
2022-09-14T16:49:12.093Z,65.96
2022-09-14T16:51:38.881Z,67.01
2022-09-14T16:54:05.387Z,65.83
2022-09-14T16:56:34.443Z,66.49
2022-09-14T16:59:01.644Z,67.42
2022-09-14T17:01:33.804Z,68.02
2022-09-14T17:04:05.409Z,67.50
2022-09-14T17:06:32.815Z,68.78
2022-09-14T17:09:02.054Z,76.54
2022-09-14T17:11:30.173Z,79.60
2022-09-14T17:13:57.358Z,80.46
2022-09-14T17:16:25.201Z,80.96
2022-09-14T17:18:54.280Z,79.10
2022-09-14T17:21:23.272Z,80.64
2022-09-14T17:23:50.030Z,79.59
2022-09-14T17:26:18.644Z,80.79
2022-09-14T17:28:47.305Z,78.46
2022-09-14T17:31:16.189Z,76.92
2022-09-14T17:33:42.795Z,75.26
2022-09-14T17:36:09.390Z,75.84
2022-09-14T17:38:37.984Z,75.49
2022-09-14T17:41:14.262Z,74.79
2022-09-14T17:43:41.365Z,74.81
2022-09-14T17:46:12.187Z,74.31
2022-09-14T17:48:40.295Z,73.73
2022-09-14T17:51:08.598Z,74.24
2022-09-14T17:53:39.169Z,73.60
2022-09-14T17:56:08.062Z,73.27
2022-09-14T17:58:35.076Z,74.42
2022-09-14T18:01:06.180Z,73.75
2022-09-14T18:03:32.808Z,73.47
2022-09-14T18:05:59.329Z,73.58
2022-09-14T18:08:25.891Z,73.68
2022-09-14T18:10:52.381Z,73.32
2022-09-14T18:13:18.993Z,73.37
2022-09-14T18:15:45.450Z,73.97
2022-09-14T18:18:11.956Z,73.17
2022-09-14T18:20:38.662Z,73.16
2022-09-14T18:23:05.222Z,73.33
2022-09-14T18:25:31.708Z,73.50
2022-09-14T18:27:58.184Z,73.30
2022-09-14T18:30:24.598Z,73.19
2022-09-14T18:32:53.013Z,73.37
2022-09-14T18:35:19.457Z,73.96
2022-09-14T18:37:45.911Z,73.23
2022-09-14T18:40:12.399Z,72.93
2022-09-14T18:42:38.896Z,73.60
2022-09-14T18:45:06.758Z,74.24
2022-09-14T18:47:33.470Z,73.41
2022-09-14T18:50:01.017Z,73.01
2022-09-14T18:52:28.105Z,72.90
2022-09-14T18:54:54.562Z,73.82
2022-09-14T18:57:22.342Z,73.41
2022-09-14T18:59:53.845Z,73.48
2022-09-14T19:02:20.475Z,72.80
2022-09-14T19:04:47.402Z,72.92
2022-09-14T19:07:13.845Z,73.05
2022-09-14T19:09:40.284Z,73.28
2022-09-14T19:12:07.147Z,73.12
2022-09-14T19:14:33.675Z,73.09
2022-09-14T19:17:00.146Z,72.92
2022-09-14T19:19:52.653Z,73.10
2022-09-14T19:22:19.107Z,72.70
2022-09-14T19:24:45.542Z,72.95
2022-09-14T19:27:12.008Z,73.59
2022-09-14T19:29:39.471Z,72.45
2022-09-14T19:32:06.058Z,74.20
2022-09-14T19:34:32.516Z,73.52
2022-09-14T19:36:58.964Z,73.32
2022-09-14T19:39:25.922Z,72.55
2022-09-14T19:41:54.481Z,73.11
2022-09-14T19:44:23.163Z,73.77
2022-09-14T19:46:50.297Z,72.90
2022-09-14T19:49:19.708Z,73.00
2022-09-14T19:51:46.670Z,73.10
2022-09-14T19:54:13.272Z,72.22
2022-09-14T19:56:40.394Z,71.92
2022-09-14T19:59:07.628Z,71.94
2022-09-14T20:01:36.246Z,72.50
2022-09-14T20:04:04.002Z,72.18
2022-09-14T20:06:33.842Z,72.25
2022-09-14T20:09:11.889Z,71.51
2022-09-14T20:11:39.778Z,71.92
2022-09-14T20:14:08.676Z,71.53
2022-09-14T20:16:38.275Z,70.80
2022-09-14T20:19:08.704Z,71.48
2022-09-14T20:21:38.009Z,71.82
2022-09-14T20:24:21.981Z,70.75
2022-09-14T20:26:50.330Z,71.22
2022-09-14T20:29:18.283Z,71.77
2022-09-14T20:31:45.410Z,70.94
2022-09-14T20:34:12.769Z,70.90
2022-09-14T20:36:39.548Z,70.91
2022-09-14T20:39:06.262Z,71.46
2022-09-14T20:41:34.388Z,71.07
2022-09-14T20:44:01.482Z,71.70
2022-09-14T20:46:36.764Z,70.21
2022-09-14T20:49:05.690Z,70.16
2022-09-14T20:51:32.353Z,69.82
2022-09-14T20:53:58.959Z,71.12
2022-09-14T20:56:27.927Z,71.93
2022-09-14T20:58:56.686Z,70.94
2022-09-14T21:01:26.987Z,70.84
2022-09-14T21:03:54.437Z,70.85
2022-09-14T21:06:25.575Z,71.00
2022-09-14T21:08:52.646Z,70.86
2022-09-14T21:11:21.876Z,71.05
2022-09-14T21:13:49.302Z,70.32
2022-09-14T21:16:23.754Z,70.03
2022-09-14T21:18:59.650Z,70.99
2022-09-14T21:21:27.211Z,70.68
2022-09-14T21:23:55.856Z,69.87
2022-09-14T21:26:22.637Z,70.29
2022-09-14T21:28:50.015Z,69.75
2022-09-14T21:31:19.866Z,70.44
2022-09-14T21:33:49.433Z,70.84
2022-09-14T21:36:21.747Z,69.68
2022-09-14T21:38:50.134Z,70.66
2022-09-14T21:41:17.433Z,70.50
2022-09-14T21:43:44.922Z,71.00
2022-09-14T21:46:12.393Z,71.56
2022-09-14T21:48:38.942Z,71.33
2022-09-14T21:51:18.624Z,72.10
2022-09-14T21:53:58.070Z,71.80
2022-09-14T21:56:26.907Z,71.69
2022-09-14T21:58:55.554Z,72.76
2022-09-14T22:01:23.285Z,71.81
2022-09-14T22:03:53.685Z,71.64
2022-09-14T22:06:22.267Z,71.81
2022-09-14T22:08:49.252Z,73.13
2022-09-14T22:11:24.694Z,73.89
2022-09-14T22:13:56.422Z,74.70
2022-09-14T22:16:24.115Z,76.43
2022-09-14T22:18:52.907Z,77.53
2022-09-14T22:21:19.878Z,77.83
2022-09-14T22:23:55.291Z,79.25
2022-09-14T22:26:23.387Z,80.08
2022-09-14T22:28:51.787Z,80.06
2022-09-14T22:31:23.545Z,77.66
2022-09-14T22:33:50.917Z,76.87
2022-09-14T22:36:17.810Z,78.87
2022-09-14T22:38:44.903Z,79.01
2022-09-14T22:41:14.519Z,77.46
2022-09-14T22:43:41.454Z,77.38
2022-09-14T22:46:08.554Z,76.87
2022-09-14T22:48:35.814Z,76.59
2022-09-14T22:51:02.731Z,77.09
2022-09-14T22:53:29.926Z,78.57
2022-09-14T22:55:56.729Z,78.46
2022-09-14T22:58:25.897Z,77.64
2022-09-14T23:00:53.159Z,77.31
2022-09-14T23:03:20.166Z,78.88
2022-09-14T23:05:55.594Z,78.47
2022-09-14T23:08:51.781Z,79.31
2022-09-14T23:11:18.269Z,78.04
2022-09-14T23:13:45.539Z,79.84
2022-09-14T23:16:18.148Z,79.93
2022-09-14T23:18:45.323Z,79.36
2022-09-14T23:21:24.856Z,79.03
2022-09-14T23:23:57.700Z,79.32
2022-09-14T23:26:25.123Z,78.86
2022-09-14T23:28:57.245Z,79.41
2022-09-14T23:31:24.326Z,78.24
2022-09-14T23:33:55.835Z,79.77
2022-09-14T23:36:23.198Z,78.87
2022-09-14T23:38:50.214Z,79.14
2022-09-14T23:41:17.730Z,78.72
2022-09-14T23:43:44.514Z,78.61
2022-09-14T23:46:11.304Z,78.68
2022-09-14T23:48:38.212Z,79.52
2022-09-14T23:51:07.596Z,79.96
2022-09-14T23:53:35.064Z,79.84
2022-09-14T23:56:02.751Z,79.45
2022-09-14T23:58:29.231Z,79.10
